createdAt,value
2018-09-27T00:00:44.201Z,9.80
2018-09-27T00:03:12.399Z,9.80
2018-09-27T00:05:40.037Z,9.80
2018-09-27T00:08:07.766Z,9.80
2018-09-27T00:10:35.432Z,9.70
2018-09-27T00:13:06.653Z,9.70
2018-09-27T00:15:34.281Z,9.60
2018-09-27T00:18:01.946Z,9.60
2018-09-27T00:20:29.571Z,9.40
2018-09-27T00:22:57.501Z,9.70
2018-09-27T00:25:25.158Z,9.80
2018-09-27T00:27:52.895Z,9.70
2018-09-27T00:30:20.872Z,9.70
2018-09-27T00:32:48.674Z,9.70
2018-09-27T00:35:16.266Z,9.70
2018-09-27T00:37:43.873Z,9.70
2018-09-27T00:40:11.502Z,9.60
2018-09-27T00:42:39.103Z,9.70
2018-09-27T00:45:07.915Z,9.80
2018-09-27T00:47:35.578Z,9.70
2018-09-27T00:50:03.314Z,9.70
2018-09-27T00:52:30.886Z,9.60
2018-09-27T00:54:58.802Z,9.70
2018-09-27T00:57:26.266Z,9.70
2018-09-27T00:59:54.009Z,9.70
2018-09-27T01:02:21.443Z,9.70
2018-09-27T01:04:48.975Z,9.70
2018-09-27T01:07:16.415Z,9.60
2018-09-27T01:09:43.991Z,9.50
2018-09-27T01:12:11.452Z,9.50
2018-09-27T01:14:39.070Z,9.50
2018-09-27T01:17:06.616Z,9.50
2018-09-27T01:19:34.179Z,9.40
2018-09-27T01:22:01.664Z,9.30
2018-09-27T01:24:29.210Z,9.30
2018-09-27T01:26:57.349Z,9.40
2018-09-27T01:29:24.900Z,9.40
2018-09-27T01:31:52.334Z,9.30
2018-09-27T01:34:19.791Z,9.20
2018-09-27T01:36:47.193Z,9.20
2018-09-27T01:39:14.751Z,9.20
2018-09-27T01:41:42.178Z,9.40
2018-09-27T01:44:09.613Z,9.30
2018-09-27T01:46:37.018Z,9.30
2018-09-27T01:49:04.804Z,9.20
2018-09-27T01:51:32.247Z,9.20
2018-09-27T01:53:59.698Z,9.10
2018-09-27T01:56:27.667Z,8.90
2018-09-27T01:58:55.260Z,8.80
2018-09-27T02:01:23.714Z,9.00
2018-09-27T02:03:51.142Z,8.90
2018-09-27T02:06:18.659Z,9.00
2018-09-27T02:08:46.078Z,9.00
2018-09-27T02:11:13.551Z,9.00
2018-09-27T02:13:41.015Z,9.00
2018-09-27T02:16:08.616Z,9.00
2018-09-27T02:18:36.140Z,8.90
2018-09-27T02:21:03.638Z,8.90
2018-09-27T02:23:31.090Z,9.00
2018-09-27T02:25:58.538Z,8.90
2018-09-27T02:28:26.043Z,8.90
2018-09-27T02:30:53.607Z,8.90
2018-09-27T02:33:21.150Z,8.90
2018-09-27T02:35:48.551Z,9.00
2018-09-27T02:38:16.060Z,8.90
2018-09-27T02:40:43.477Z,8.80
2018-09-27T02:43:10.986Z,8.90
2018-09-27T02:45:38.538Z,8.80
2018-09-27T02:48:06.117Z,8.80
2018-09-27T02:50:33.655Z,8.80
2018-09-27T02:53:01.218Z,8.70
2018-09-27T02:55:28.929Z,8.80
2018-09-27T02:57:56.450Z,8.90
2018-09-27T03:00:23.948Z,8.90
2018-09-27T03:02:51.510Z,8.90
2018-09-27T03:05:19.042Z,8.80
2018-09-27T03:07:46.569Z,8.90
2018-09-27T03:10:14.144Z,8.90
2018-09-27T03:12:41.663Z,8.90
2018-09-27T03:15:09.937Z,8.70
2018-09-27T03:17:37.431Z,8.80
2018-09-27T03:20:05.213Z,8.70
2018-09-27T03:22:32.804Z,8.70
2018-09-27T03:25:00.311Z,8.60
2018-09-27T03:27:27.804Z,8.50
2018-09-27T03:29:55.310Z,8.50
2018-09-27T03:32:22.762Z,8.60
2018-09-27T03:34:50.338Z,8.60
2018-09-27T03:37:17.787Z,8.60
2018-09-27T03:39:45.401Z,8.60
2018-09-27T03:42:13.033Z,8.70
2018-09-27T03:44:40.622Z,8.60
2018-09-27T03:47:08.173Z,8.70
2018-09-27T03:49:35.690Z,8.70
2018-09-27T03:52:03.201Z,8.50
2018-09-27T03:54:30.739Z,8.60
2018-09-27T03:56:58.179Z,8.50
2018-09-27T03:59:25.627Z,8.40
2018-09-27T04:01:53.046Z,8.30
2018-09-27T04:04:20.550Z,8.30
2018-09-27T04:06:47.979Z,8.40
2018-09-27T04:09:15.709Z,8.30
2018-09-27T04:11:43.281Z,8.30
2018-09-27T04:14:10.776Z,8.30
2018-09-27T04:16:38.386Z,8.20
2018-09-27T04:19:05.905Z,8.30
2018-09-27T04:21:33.446Z,8.30
2018-09-27T04:24:01.103Z,8.40
2018-09-27T04:26:28.743Z,8.40
2018-09-27T04:28:56.198Z,8.40
2018-09-27T04:31:23.634Z,8.30
2018-09-27T04:33:51.139Z,8.30
2018-09-27T04:38:55.626Z,8.20
2018-09-27T04:41:23.182Z,8.10
2018-09-27T04:43:50.650Z,8.10
2018-09-27T04:46:18.351Z,8.20
2018-09-27T04:48:45.807Z,8.10
2018-09-27T04:51:13.311Z,8.10
2018-09-27T04:53:40.820Z,8.10
2018-09-27T04:56:08.407Z,8.20
2018-09-27T04:58:35.862Z,8.10
2018-09-27T05:01:03.346Z,8.10
2018-09-27T05:03:30.820Z,8.10
2018-09-27T05:05:58.309Z,8.20
2018-09-27T05:08:25.833Z,8.10
2018-09-27T05:10:53.338Z,8.10
2018-09-27T05:13:21.230Z,8.00
2018-09-27T05:15:48.681Z,8.10
2018-09-27T05:18:16.252Z,8.00
2018-09-27T05:20:43.860Z,8.00
2018-09-27T05:23:11.363Z,8.00
2018-09-27T05:25:38.839Z,8.00
2018-09-27T05:28:06.875Z,8.00
2018-09-27T05:30:34.404Z,8.00
2018-09-27T05:33:02.083Z,8.00
2018-09-27T05:35:29.699Z,8.00
2018-09-27T05:37:57.134Z,7.90
2018-09-27T05:40:24.620Z,7.90
2018-09-27T05:42:52.428Z,7.90
2018-09-27T05:45:19.955Z,7.80
2018-09-27T05:47:47.627Z,7.90
2018-09-27T05:50:15.198Z,7.90
2018-09-27T05:52:42.672Z,7.90
2018-09-27T05:55:10.238Z,8.00
2018-09-27T05:57:38.013Z,8.00
2018-09-27T06:00:05.499Z,8.00
2018-09-27T06:02:33.136Z,8.00
2018-09-27T06:05:00.666Z,8.00
2018-09-27T06:07:28.252Z,8.00
2018-09-27T06:09:55.718Z,8.10
2018-09-27T06:12:23.176Z,8.00
2018-09-27T06:14:51.048Z,8.00
2018-09-27T06:17:18.592Z,8.00
2018-09-27T06:19:46.103Z,8.00
2018-09-27T06:22:13.654Z,8.00
2018-09-27T06:24:41.179Z,8.00
2018-09-27T06:27:09.040Z,8.10
2018-09-27T06:29:36.647Z,8.20
2018-09-27T06:32:04.230Z,8.30
2018-09-27T06:34:31.705Z,8.30
2018-09-27T06:36:59.174Z,8.40
2018-09-27T06:39:26.739Z,8.40
2018-09-27T06:41:54.295Z,8.40
2018-09-27T06:44:21.854Z,8.50
2018-09-27T06:46:49.480Z,8.60
2018-09-27T06:49:17.028Z,8.60
2018-09-27T06:51:44.490Z,8.60
2018-09-27T06:54:12.029Z,8.60
2018-09-27T06:56:39.570Z,8.60
2018-09-27T06:59:07.764Z,8.90
2018-09-27T07:01:35.241Z,8.70
2018-09-27T07:04:02.894Z,8.80
2018-09-27T07:06:30.579Z,8.70
2018-09-27T07:08:58.099Z,8.80
2018-09-27T07:11:25.582Z,8.80
2018-09-27T07:13:53.071Z,8.90
2018-09-27T07:16:20.639Z,8.90
2018-09-27T07:18:48.506Z,8.90
2018-09-27T07:21:15.886Z,8.90
2018-09-27T07:23:43.346Z,9.00
2018-09-27T07:26:10.838Z,9.10
2018-09-27T07:28:38.572Z,9.10
2018-09-27T07:31:07.356Z,9.20
2018-09-27T07:33:34.847Z,9.20
2018-09-27T07:36:02.351Z,9.30
2018-09-27T07:38:30.088Z,9.30
2018-09-27T07:40:57.543Z,9.50
2018-09-27T07:43:26.153Z,9.40
2018-09-27T07:45:53.702Z,9.50
2018-09-27T07:48:21.309Z,9.50
2018-09-27T07:50:48.847Z,9.60
2018-09-27T07:53:16.423Z,9.60
2018-09-27T07:55:43.968Z,9.70
2018-09-27T07:58:11.464Z,9.70
2018-09-27T08:00:39.355Z,9.80
2018-09-27T08:03:06.989Z,9.90
2018-09-27T08:05:34.665Z,9.90
2018-09-27T08:08:02.315Z,10.00
2018-09-27T08:10:29.882Z,10.10
2018-09-27T08:12:57.464Z,10.20
2018-09-27T08:15:25.176Z,10.20
2018-09-27T08:17:52.779Z,10.20
2018-09-27T08:20:20.464Z,10.30
2018-09-27T08:22:51.332Z,10.40
2018-09-27T08:25:18.845Z,10.50
2018-09-27T08:27:46.302Z,10.50
2018-09-27T08:30:14.287Z,10.70
2018-09-27T08:32:41.884Z,10.70
2018-09-27T08:35:09.311Z,10.90
2018-09-27T08:37:36.976Z,11.00
2018-09-27T08:40:04.590Z,11.00
2018-09-27T08:42:32.416Z,11.20
2018-09-27T08:45:05.476Z,11.30
2018-09-27T08:47:32.930Z,11.40
2018-09-27T08:50:01.128Z,11.50
2018-09-27T08:52:30.218Z,11.60
2018-09-27T11:01:29.624Z,15.70
2018-09-27T11:03:59.140Z,15.80
2018-09-27T11:09:47.012Z,16.00
2018-09-27T11:12:25.252Z,16.10
2018-09-27T11:14:55.912Z,16.00
2018-09-27T11:17:25.258Z,16.10
2018-09-27T11:19:58.110Z,16.10
2018-09-27T11:22:27.079Z,16.20
2018-09-27T11:24:58.624Z,16.20
2018-09-27T11:27:27.362Z,16.30
2018-09-27T11:38:49.289Z,16.60
2018-09-27T11:41:20.551Z,16.60
2018-09-27T11:43:50.239Z,16.70
2018-09-27T11:46:38.984Z,16.70
2018-09-27T11:49:12.696Z,16.60
2018-09-27T11:51:50.416Z,16.80
2018-09-27T11:57:19.708Z,16.90
2018-09-27T11:59:48.468Z,17.00
2018-09-27T12:02:17.586Z,17.10
2018-09-27T12:04:47.311Z,17.30
2018-09-27T12:07:21.184Z,17.30
2018-09-27T12:09:50.519Z,17.30
2018-09-27T12:12:22.342Z,17.50
2018-09-27T12:15:08.247Z,17.50
2018-09-27T12:17:39.551Z,17.60
2018-09-27T12:20:12.118Z,17.60
2018-09-27T12:22:44.451Z,17.70
2018-09-27T12:25:20.545Z,17.70
2018-09-27T12:27:49.690Z,17.70
2018-09-27T12:30:34.165Z,17.80
2018-09-27T13:34:20.670Z,19.20
2018-09-27T13:37:12.889Z,19.20
2018-09-27T13:42:34.861Z,19.40
2018-09-27T13:45:12.914Z,19.50
2018-09-27T13:47:43.077Z,19.60
2018-09-27T13:53:06.009Z,19.80
2018-09-27T13:55:48.935Z,19.80
2018-09-27T14:00:56.582Z,19.90
2018-09-27T14:03:39.453Z,19.90
2018-09-27T14:06:08.766Z,19.90
2018-09-27T14:08:38.709Z,19.90
2018-09-27T14:13:49.733Z,20.00
2018-09-27T14:16:18.893Z,20.10
2018-09-27T14:18:47.519Z,20.20
2018-09-27T14:21:18.243Z,20.20
2018-09-27T14:23:47.775Z,20.40
2018-09-27T14:26:17.159Z,20.40
2018-09-27T14:28:48.373Z,20.40
2018-09-27T14:31:17.170Z,20.40
2018-09-27T14:33:48.140Z,20.40
2018-09-27T14:36:16.832Z,20.40
2018-09-27T14:39:33.672Z,20.40
2018-09-27T14:42:06.137Z,20.40
2018-09-27T14:44:40.104Z,20.40
2018-09-27T14:47:13.198Z,20.40
2018-09-27T14:49:43.135Z,20.40
2018-09-27T14:52:17.618Z,20.40
2018-09-27T14:54:48.036Z,20.40
2018-09-27T14:57:17.589Z,20.40
2018-09-27T14:59:48.365Z,20.50
2018-09-27T15:02:18.827Z,20.60
2018-09-27T15:04:48.817Z,20.80
2018-09-27T15:07:19.394Z,20.90
2018-09-27T15:09:48.363Z,21.10
2018-09-27T15:12:20.573Z,21.10
2018-09-27T15:14:49.814Z,21.00
2018-09-27T15:17:19.345Z,20.90
2018-09-27T15:19:48.732Z,20.90
2018-09-27T15:25:06.917Z,21.10
2018-09-27T15:27:40.577Z,21.00
2018-09-27T15:30:10.300Z,21.00
2018-09-27T15:32:39.896Z,21.10
2018-09-27T15:35:13.022Z,21.00
2018-09-27T15:37:55.843Z,20.90
2018-09-27T15:40:26.504Z,20.90
2018-09-27T15:43:00.683Z,20.80
2018-09-27T15:45:31.614Z,20.70
2018-09-27T15:48:02.370Z,20.60
2018-09-27T15:50:34.253Z,20.70
2018-09-27T15:53:04.241Z,20.70
2018-09-27T15:55:37.998Z,20.60
2018-09-27T15:58:08.215Z,20.40
2018-09-27T16:00:37.832Z,20.50
2018-09-27T16:03:08.566Z,20.30
2018-09-27T16:08:42.518Z,20.20
2018-09-27T16:11:14.170Z,20.10
2018-09-27T16:13:43.198Z,20.10
2018-09-27T16:16:12.721Z,20.10
2018-09-27T16:18:45.588Z,20.00
2018-09-27T16:21:15.234Z,19.90
2018-09-27T16:23:47.918Z,19.80
2018-09-27T16:26:32.798Z,19.90
2018-09-27T16:29:08.195Z,19.80
2018-09-27T16:31:45.953Z,19.60
2018-09-27T16:34:19.702Z,19.50
2018-09-27T16:36:49.681Z,19.40
2018-09-27T16:39:24.620Z,19.30
2018-09-27T16:41:56.143Z,19.20
2018-09-27T16:44:26.970Z,19.10
2018-09-27T16:47:03.068Z,19.10
2018-09-27T16:49:43.023Z,19.00
2018-09-27T16:58:07.589Z,18.70
2018-09-27T17:00:45.998Z,18.60
2018-09-27T17:03:19.297Z,18.50
2018-09-27T17:05:48.472Z,18.30
2018-09-27T17:08:24.270Z,18.20
2018-09-27T17:10:57.032Z,18.10
2018-09-27T18:10:38.630Z,17.90
2018-09-27T18:13:08.477Z,15.40
2018-09-27T18:15:36.564Z,15.20
2018-09-27T18:18:09.382Z,15.10
2018-09-27T18:20:39.117Z,15.10
2018-09-27T18:25:47.995Z,14.90
2018-09-27T18:28:41.555Z,14.80
2018-09-27T18:33:50.488Z,14.80
2018-09-27T18:39:17.456Z,14.80
2018-09-27T18:41:47.282Z,14.70
2018-09-27T18:44:15.910Z,14.70
2018-09-27T18:46:44.111Z,14.60
2018-09-27T18:49:20.073Z,14.50
2018-09-27T18:51:47.768Z,14.60
2018-09-27T18:54:19.372Z,14.50
2018-09-27T18:56:47.510Z,14.50
2018-09-27T18:59:21.284Z,14.40
2018-09-27T19:02:01.606Z,14.40
2018-09-27T19:04:34.949Z,14.30
2018-09-27T19:07:12.201Z,14.40
2018-09-27T19:09:41.719Z,14.20
2018-09-27T19:12:11.696Z,14.20
2018-09-27T19:14:43.313Z,14.20
2018-09-27T19:17:15.078Z,14.10
2018-09-27T19:19:43.277Z,14.10
2018-09-27T19:22:13.428Z,14.10
2018-09-27T19:24:45.786Z,14.00
2018-09-27T19:27:17.203Z,14.00
2018-09-27T19:29:49.128Z,14.00
2018-09-27T19:32:21.887Z,13.90
2018-09-27T19:34:55.799Z,13.90
2018-09-27T19:37:29.760Z,13.70
2018-09-27T19:40:00.360Z,13.80
2018-09-27T19:45:07.975Z,13.80
2018-09-27T19:47:47.467Z,13.80
2018-09-27T19:50:22.567Z,13.80
2018-09-27T19:52:57.186Z,13.80
2018-09-27T19:55:28.017Z,13.70
2018-09-27T19:58:08.196Z,13.70
2018-09-27T20:00:41.841Z,13.70
2018-09-27T20:03:09.468Z,13.70
2018-09-27T20:05:37.982Z,13.70
2018-09-27T20:08:05.751Z,13.60
2018-09-27T20:10:34.600Z,13.60
2018-09-27T20:13:03.209Z,13.60
2018-09-27T20:15:31.202Z,13.60
2018-09-27T20:17:59.064Z,13.60
2018-09-27T20:20:27.795Z,13.50
2018-09-27T20:22:56.925Z,13.50
2018-09-27T20:25:26.689Z,13.50
2018-09-27T20:27:55.875Z,13.50
2018-09-27T20:30:24.735Z,13.40
2018-09-27T20:32:52.384Z,13.50
2018-09-27T21:20:10.338Z,13.30
2018-09-27T21:22:46.303Z,12.90
2018-09-27T21:25:20.524Z,12.80
2018-09-27T21:27:57.148Z,12.80
2018-09-27T21:30:26.138Z,12.70
2018-09-27T21:32:56.003Z,12.80
2018-09-27T21:35:25.704Z,12.80
2018-09-27T21:37:56.856Z,12.80
2018-09-27T21:40:29.089Z,12.80
2018-09-27T21:42:57.045Z,12.70
2018-09-27T21:45:25.741Z,12.60
2018-09-27T21:47:55.686Z,12.60
2018-09-27T21:50:23.314Z,12.60
2018-09-27T21:52:52.766Z,12.70
2018-09-27T21:55:28.641Z,12.60
2018-09-27T21:57:57.039Z,12.70
2018-09-27T22:00:24.837Z,12.60
2018-09-27T22:02:52.497Z,12.60
2018-09-27T22:05:20.127Z,12.40
2018-09-27T22:07:47.926Z,12.50
2018-09-27T22:10:15.571Z,12.50
2018-09-27T22:12:44.123Z,12.50
2018-09-27T22:15:11.806Z,12.50
2018-09-27T22:17:39.340Z,12.50
2018-09-27T22:20:06.891Z,12.50
2018-09-27T22:22:34.302Z,12.50
2018-09-27T22:25:01.792Z,12.40
2018-09-27T22:27:29.821Z,12.40
2018-09-27T22:29:57.346Z,12.30
2018-09-27T22:32:24.977Z,12.30
2018-09-27T22:34:52.554Z,12.30
2018-09-27T22:37:20.132Z,12.30
2018-09-27T22:39:47.869Z,12.20
2018-09-27T22:42:15.388Z,12.20
2018-09-27T22:44:42.876Z,12.20
2018-09-27T22:47:10.562Z,12.10
2018-09-27T22:49:38.167Z,12.10
2018-09-27T22:52:05.782Z,12.00
2018-09-27T22:54:33.603Z,12.00
2018-09-27T22:57:01.053Z,12.10
2018-09-27T22:59:29.225Z,12.10
2018-09-27T23:01:56.790Z,11.90
2018-09-27T23:04:24.887Z,12.00
2018-09-27T23:06:52.852Z,12.10
2018-09-27T23:09:20.328Z,12.10
2018-09-27T23:11:49.101Z,11.90
2018-09-27T23:14:16.670Z,11.90
2018-09-27T23:16:44.219Z,11.80
2018-09-27T23:19:11.782Z,11.80
2018-09-27T23:21:39.702Z,11.90
2018-09-27T23:24:07.757Z,11.80
2018-09-27T23:26:35.255Z,11.70
2018-09-27T23:29:02.839Z,11.70
2018-09-27T23:31:30.467Z,11.70
2018-09-27T23:33:58.184Z,11.70
2018-09-27T23:36:25.748Z,11.80
2018-09-27T23:38:54.252Z,11.80
2018-09-27T23:41:21.874Z,11.80
2018-09-27T23:43:49.408Z,11.80
2018-09-27T23:46:16.911Z,11.70
2018-09-27T23:48:45.838Z,11.80
2018-09-27T23:51:13.399Z,11.60
2018-09-27T23:53:40.969Z,11.70
2018-09-27T23:56:08.541Z,11.60
2018-09-27T23:58:36.106Z,11.70
